sensor_id;sensor_type;location;lat;lon;timestamp;P1;durP1;ratioP1;P2;durP2;ratioP2
17345;SDS011;8790;53.590;10.002;2022-08-06T00:00:13;2.20;;;1.10;;
17345;SDS011;8790;53.590;10.002;2022-08-06T00:02:46;2.97;;;1.10;;
17345;SDS011;8790;53.590;10.002;2022-08-06T00:05:18;2.50;;;1.03;;
17345;SDS011;8790;53.590;10.002;2022-08-06T00:07:49;2.13;;;1.00;;
17345;SDS011;8790;53.590;10.002;2022-08-06T00:10:21;3.97;;;0.90;;
17345;SDS011;8790;53.590;10.002;2022-08-06T00:12:53;2.03;;;0.90;;
17345;SDS011;8790;53.590;10.002;2022-08-06T00:15:25;3.90;;;1.10;;
17345;SDS011;8790;53.590;10.002;2022-08-06T00:17:58;1.50;;;0.97;;
17345;SDS011;8790;53.590;10.002;2022-08-06T00:20:29;3.03;;;1.30;;
17345;SDS011;8790;53.590;10.002;2022-08-06T00:23:01;1.87;;;1.20;;
17345;SDS011;8790;53.590;10.002;2022-08-06T00:25:33;3.07;;;1.17;;
17345;SDS011;8790;53.590;10.002;2022-08-06T00:28:05;3.00;;;1.10;;
17345;SDS011;8790;53.590;10.002;2022-08-06T00:30:36;2.83;;;1.07;;
17345;SDS011;8790;53.590;10.002;2022-08-06T00:33:09;1.33;;;1.17;;
17345;SDS011;8790;53.590;10.002;2022-08-06T00:35:41;1.77;;;1.00;;
17345;SDS011;8790;53.590;10.002;2022-08-06T00:38:13;2.10;;;0.90;;
17345;SDS011;8790;53.590;10.002;2022-08-06T00:40:44;2.20;;;1.00;;
17345;SDS011;8790;53.590;10.002;2022-08-06T00:43:16;2.17;;;1.10;;
17345;SDS011;8790;53.590;10.002;2022-08-06T00:45:48;2.37;;;1.10;;
17345;SDS011;8790;53.590;10.002;2022-08-06T00:48:21;1.20;;;0.80;;
17345;SDS011;8790;53.590;10.002;2022-08-06T00:50:53;2.63;;;1.10;;
17345;SDS011;8790;53.590;10.002;2022-08-06T00:53:25;2.87;;;1.10;;
17345;SDS011;8790;53.590;10.002;2022-08-06T00:55:56;1.63;;;1.13;;
17345;SDS011;8790;53.590;10.002;2022-08-06T00:58:28;3.93;;;1.20;;
17345;SDS011;8790;53.590;10.002;2022-08-06T01:01:00;2.33;;;0.90;;
17345;SDS011;8790;53.590;10.002;2022-08-06T01:03:33;2.27;;;0.97;;
17345;SDS011;8790;53.590;10.002;2022-08-06T01:06:05;2.37;;;1.07;;
17345;SDS011;8790;53.590;10.002;2022-08-06T01:08:36;1.90;;;1.07;;
17345;SDS011;8790;53.590;10.002;2022-08-06T01:11:08;2.17;;;1.07;;
17345;SDS011;8790;53.590;10.002;2022-08-06T01:13:40;2.13;;;1.10;;
17345;SDS011;8790;53.590;10.002;2022-08-06T01:16:15;4.43;;;1.20;;
17345;SDS011;8790;53.590;10.002;2022-08-06T01:18:57;3.53;;;1.13;;
17345;SDS011;8790;53.590;10.002;2022-08-06T01:21:46;1.63;;;1.10;;
17345;SDS011;8790;53.590;10.002;2022-08-06T01:24:39;1.87;;;1.10;;
17345;SDS011;8790;53.590;10.002;2022-08-06T01:30:15;2.13;;;1.30;;
17345;SDS011;8790;53.590;10.002;2022-08-06T01:32:51;3.40;;;1.27;;
17345;SDS011;8790;53.590;10.002;2022-08-06T01:35:27;1.63;;;1.10;;
17345;SDS011;8790;53.590;10.002;2022-08-06T01:38:05;2.07;;;1.10;;
17345;SDS011;8790;53.590;10.002;2022-08-06T01:40:41;1.47;;;1.00;;
17345;SDS011;8790;53.590;10.002;2022-08-06T01:43:18;2.47;;;1.10;;
17345;SDS011;8790;53.590;10.002;2022-08-06T01:45:51;2.63;;;1.10;;
17345;SDS011;8790;53.590;10.002;2022-08-06T01:48:26;3.33;;;1.13;;
17345;SDS011;8790;53.590;10.002;2022-08-06T01:50:59;1.43;;;1.00;;
17345;SDS011;8790;53.590;10.002;2022-08-06T01:53:34;1.93;;;1.00;;
17345;SDS011;8790;53.590;10.002;2022-08-06T01:56:09;1.97;;;1.10;;
17345;SDS011;8790;53.590;10.002;2022-08-06T01:58:43;2.77;;;1.10;;
17345;SDS011;8790;53.590;10.002;2022-08-06T02:01:18;3.60;;;1.17;;
17345;SDS011;8790;53.590;10.002;2022-08-06T02:03:53;1.63;;;1.20;;
17345;SDS011;8790;53.590;10.002;2022-08-06T02:06:27;2.93;;;1.10;;
17345;SDS011;8790;53.590;10.002;2022-08-06T02:09:03;3.40;;;1.30;;
17345;SDS011;8790;53.590;10.002;2022-08-06T02:11:36;1.70;;;1.13;;
17345;SDS011;8790;53.590;10.002;2022-08-06T02:14:11;1.90;;;1.10;;
17345;SDS011;8790;53.590;10.002;2022-08-06T02:16:45;1.87;;;0.90;;
17345;SDS011;8790;53.590;10.002;2022-08-06T02:19:18;2.20;;;1.27;;
17345;SDS011;8790;53.590;10.002;2022-08-06T02:21:52;1.37;;;1.00;;
17345;SDS011;8790;53.590;10.002;2022-08-06T02:24:27;1.60;;;1.00;;
17345;SDS011;8790;53.590;10.002;2022-08-06T02:27:00;1.30;;;0.90;;
17345;SDS011;8790;53.590;10.002;2022-08-06T02:29:34;2.93;;;1.03;;
17345;SDS011;8790;53.590;10.002;2022-08-06T02:32:08;4.07;;;1.37;;
17345;SDS011;8790;53.590;10.002;2022-08-06T02:34:41;2.17;;;1.10;;
17345;SDS011;8790;53.590;10.002;2022-08-06T02:37:13;3.03;;;0.90;;
17345;SDS011;8790;53.590;10.002;2022-08-06T02:39:50;1.60;;;0.97;;
17345;SDS011;8790;53.590;10.002;2022-08-06T02:42:28;4.17;;;1.30;;
17345;SDS011;8790;53.590;10.002;2022-08-06T02:45:05;1.90;;;1.10;;
17345;SDS011;8790;53.590;10.002;2022-08-06T02:47:42;1.03;;;0.90;;
17345;SDS011;8790;53.590;10.002;2022-08-06T02:50:20;2.83;;;1.00;;
17345;SDS011;8790;53.590;10.002;2022-08-06T02:52:56;1.70;;;1.00;;
17345;SDS011;8790;53.590;10.002;2022-08-06T02:55:32;2.17;;;1.00;;
17345;SDS011;8790;53.590;10.002;2022-08-06T02:58:08;2.80;;;1.20;;
17345;SDS011;8790;53.590;10.002;2022-08-06T03:00:44;3.90;;;1.30;;
17345;SDS011;8790;53.590;10.002;2022-08-06T03:03:19;1.73;;;1.33;;
17345;SDS011;8790;53.590;10.002;2022-08-06T03:05:53;4.30;;;1.10;;
17345;SDS011;8790;53.590;10.002;2022-08-06T03:08:27;2.70;;;1.20;;
17345;SDS011;8790;53.590;10.002;2022-08-06T03:11:02;1.43;;;1.10;;
17345;SDS011;8790;53.590;10.002;2022-08-06T03:13:36;2.00;;;1.00;;
17345;SDS011;8790;53.590;10.002;2022-08-06T03:16:10;2.07;;;1.33;;
17345;SDS011;8790;53.590;10.002;2022-08-06T03:18:43;2.23;;;1.10;;
17345;SDS011;8790;53.590;10.002;2022-08-06T03:21:17;3.03;;;1.27;;
17345;SDS011;8790;53.590;10.002;2022-08-06T03:23:52;2.83;;;1.30;;
17345;SDS011;8790;53.590;10.002;2022-08-06T03:26:25;2.57;;;1.10;;
17345;SDS011;8790;53.590;10.002;2022-08-06T03:28:58;5.40;;;1.27;;
17345;SDS011;8790;53.590;10.002;2022-08-06T03:31:32;3.67;;;1.20;;
17345;SDS011;8790;53.590;10.002;2022-08-06T03:34:04;1.70;;;1.10;;
17345;SDS011;8790;53.590;10.002;2022-08-06T03:36:37;2.60;;;1.10;;
17345;SDS011;8790;53.590;10.002;2022-08-06T03:39:10;1.60;;;1.20;;
17345;SDS011;8790;53.590;10.002;2022-08-06T03:41:44;2.30;;;1.20;;
17345;SDS011;8790;53.590;10.002;2022-08-06T03:44:16;1.37;;;1.03;;
17345;SDS011;8790;53.590;10.002;2022-08-06T03:46:51;2.00;;;1.17;;
17345;SDS011;8790;53.590;10.002;2022-08-06T03:49:26;3.90;;;1.20;;
17345;SDS011;8790;53.590;10.002;2022-08-06T03:52:00;2.90;;;1.20;;
17345;SDS011;8790;53.590;10.002;2022-08-06T03:54:34;2.27;;;1.30;;
17345;SDS011;8790;53.590;10.002;2022-08-06T03:57:11;2.60;;;1.30;;
17345;SDS011;8790;53.590;10.002;2022-08-06T03:59:45;1.67;;;1.20;;
17345;SDS011;8790;53.590;10.002;2022-08-06T04:02:20;2.33;;;1.50;;
17345;SDS011;8790;53.590;10.002;2022-08-06T04:04:52;3.57;;;1.37;;
17345;SDS011;8790;53.590;10.002;2022-08-06T04:07:25;2.60;;;1.50;;
17345;SDS011;8790;53.590;10.002;2022-08-06T04:09:58;2.00;;;1.27;;
17345;SDS011;8790;53.590;10.002;2022-08-06T04:12:30;1.57;;;1.37;;
17345;SDS011;8790;53.590;10.002;2022-08-06T04:15:04;3.00;;;1.43;;
17345;SDS011;8790;53.590;10.002;2022-08-06T04:17:40;2.53;;;1.40;;
17345;SDS011;8790;53.590;10.002;2022-08-06T04:20:14;4.20;;;1.40;;
17345;SDS011;8790;53.590;10.002;2022-08-06T04:22:49;1.57;;;1.30;;
17345;SDS011;8790;53.590;10.002;2022-08-06T04:25:21;2.33;;;1.20;;
17345;SDS011;8790;53.590;10.002;2022-08-06T04:27:55;2.23;;;1.20;;
17345;SDS011;8790;53.590;10.002;2022-08-06T04:30:30;3.40;;;1.20;;
17345;SDS011;8790;53.590;10.002;2022-08-06T04:33:05;3.73;;;1.60;;
17345;SDS011;8790;53.590;10.002;2022-08-06T04:35:40;3.30;;;1.57;;
17345;SDS011;8790;53.590;10.002;2022-08-06T04:38:14;2.23;;;1.30;;
17345;SDS011;8790;53.590;10.002;2022-08-06T04:40:48;1.60;;;1.43;;
17345;SDS011;8790;53.590;10.002;2022-08-06T04:43:20;3.63;;;1.83;;
17345;SDS011;8790;53.590;10.002;2022-08-06T04:45:52;2.27;;;1.43;;
17345;SDS011;8790;53.590;10.002;2022-08-06T04:48:26;3.03;;;1.53;;
17345;SDS011;8790;53.590;10.002;2022-08-06T04:50:59;3.13;;;1.63;;
17345;SDS011;8790;53.590;10.002;2022-08-06T04:53:36;1.80;;;1.50;;
17345;SDS011;8790;53.590;10.002;2022-08-06T04:56:09;1.60;;;1.50;;
17345;SDS011;8790;53.590;10.002;2022-08-06T04:58:41;3.40;;;1.93;;
17345;SDS011;8790;53.590;10.002;2022-08-06T05:01:13;2.40;;;1.50;;
17345;SDS011;8790;53.590;10.002;2022-08-06T05:03:47;3.30;;;1.87;;
17345;SDS011;8790;53.590;10.002;2022-08-06T05:06:19;4.63;;;1.70;;
17345;SDS011;8790;53.590;10.002;2022-08-06T05:09:06;2.47;;;1.60;;
17345;SDS011;8790;53.590;10.002;2022-08-06T05:11:41;4.60;;;1.77;;
17345;SDS011;8790;53.590;10.002;2022-08-06T05:14:19;1.87;;;1.50;;
17345;SDS011;8790;53.590;10.002;2022-08-06T05:16:55;3.33;;;1.50;;
17345;SDS011;8790;53.590;10.002;2022-08-06T05:19:31;3.43;;;1.47;;
17345;SDS011;8790;53.590;10.002;2022-08-06T05:22:06;4.17;;;1.50;;
17345;SDS011;8790;53.590;10.002;2022-08-06T05:24:40;4.10;;;1.50;;
17345;SDS011;8790;53.590;10.002;2022-08-06T05:27:12;2.83;;;1.40;;
17345;SDS011;8790;53.590;10.002;2022-08-06T05:29:43;2.47;;;1.30;;
17345;SDS011;8790;53.590;10.002;2022-08-06T05:32:15;1.47;;;1.20;;
17345;SDS011;8790;53.590;10.002;2022-08-06T05:34:49;2.37;;;1.40;;
17345;SDS011;8790;53.590;10.002;2022-08-06T05:37:21;3.23;;;1.50;;
17345;SDS011;8790;53.590;10.002;2022-08-06T05:39:52;2.70;;;1.40;;
17345;SDS011;8790;53.590;10.002;2022-08-06T05:42:24;1.90;;;1.30;;
17345;SDS011;8790;53.590;10.002;2022-08-06T05:44:56;2.43;;;1.30;;
17345;SDS011;8790;53.590;10.002;2022-08-06T05:47:28;2.27;;;1.40;;
17345;SDS011;8790;53.590;10.002;2022-08-06T05:50:10;5.57;;;1.40;;
17345;SDS011;8790;53.590;10.002;2022-08-06T05:52:48;2.50;;;1.30;;
17345;SDS011;8790;53.590;10.002;2022-08-06T05:55:25;1.70;;;1.50;;
17345;SDS011;8790;53.590;10.002;2022-08-06T05:58:02;1.83;;;1.47;;
17345;SDS011;8790;53.590;10.002;2022-08-06T06:00:38;3.57;;;1.50;;
17345;SDS011;8790;53.590;10.002;2022-08-06T06:03:12;2.73;;;1.40;;
17345;SDS011;8790;53.590;10.002;2022-08-06T06:05:46;1.80;;;1.13;;
17345;SDS011;8790;53.590;10.002;2022-08-06T06:08:18;2.50;;;1.60;;
17345;SDS011;8790;53.590;10.002;2022-08-06T06:10:51;3.23;;;1.30;;
17345;SDS011;8790;53.590;10.002;2022-08-06T06:13:24;2.10;;;1.37;;
17345;SDS011;8790;53.590;10.002;2022-08-06T06:15:57;3.53;;;1.40;;
17345;SDS011;8790;53.590;10.002;2022-08-06T06:18:43;2.23;;;1.33;;
17345;SDS011;8790;53.590;10.002;2022-08-06T06:21:28;2.63;;;1.70;;
17345;SDS011;8790;53.590;10.002;2022-08-06T06:24:08;2.23;;;1.50;;
17345;SDS011;8790;53.590;10.002;2022-08-06T06:26:48;4.47;;;1.40;;
17345;SDS011;8790;53.590;10.002;2022-08-06T06:29:32;1.53;;;1.20;;
17345;SDS011;8790;53.590;10.002;2022-08-06T06:32:10;3.13;;;1.37;;
17345;SDS011;8790;53.590;10.002;2022-08-06T06:34:49;1.93;;;1.30;;
17345;SDS011;8790;53.590;10.002;2022-08-06T06:37:29;4.30;;;1.40;;
17345;SDS011;8790;53.590;10.002;2022-08-06T06:40:11;3.27;;;1.40;;
17345;SDS011;8790;53.590;10.002;2022-08-06T06:42:53;2.20;;;1.37;;
17345;SDS011;8790;53.590;10.002;2022-08-06T06:45:32;3.30;;;1.23;;
17345;SDS011;8790;53.590;10.002;2022-08-06T06:48:13;2.30;;;1.20;;
17345;SDS011;8790;53.590;10.002;2022-08-06T06:50:49;2.37;;;1.33;;
17345;SDS011;8790;53.590;10.002;2022-08-06T06:53:25;2.90;;;1.23;;
17345;SDS011;8790;53.590;10.002;2022-08-06T06:56:01;2.50;;;1.20;;
17345;SDS011;8790;53.590;10.002;2022-08-06T06:58:35;1.83;;;1.10;;
17345;SDS011;8790;53.590;10.002;2022-08-06T07:01:09;2.03;;;1.00;;
17345;SDS011;8790;53.590;10.002;2022-08-06T07:03:43;4.07;;;1.00;;
17345;SDS011;8790;53.590;10.002;2022-08-06T07:06:16;1.47;;;1.10;;
17345;SDS011;8790;53.590;10.002;2022-08-06T07:08:51;2.47;;;1.30;;
17345;SDS011;8790;53.590;10.002;2022-08-06T07:11:23;2.23;;;1.10;;
17345;SDS011;8790;53.590;10.002;2022-08-06T07:13:57;2.10;;;1.43;;
17345;SDS011;8790;53.590;10.002;2022-08-06T07:16:30;3.70;;;1.20;;
17345;SDS011;8790;53.590;10.002;2022-08-06T07:19:04;3.70;;;1.27;;
17345;SDS011;8790;53.590;10.002;2022-08-06T07:21:38;3.13;;;1.00;;
17345;SDS011;8790;53.590;10.002;2022-08-06T07:24:13;3.60;;;1.20;;
17345;SDS011;8790;53.590;10.002;2022-08-06T07:26:46;3.17;;;1.00;;
17345;SDS011;8790;53.590;10.002;2022-08-06T07:29:19;3.03;;;1.10;;
17345;SDS011;8790;53.590;10.002;2022-08-06T07:31:51;1.83;;;1.00;;
17345;SDS011;8790;53.590;10.002;2022-08-06T07:34:25;2.47;;;0.90;;
17345;SDS011;8790;53.590;10.002;2022-08-06T07:36:58;3.63;;;1.00;;
17345;SDS011;8790;53.590;10.002;2022-08-06T07:39:32;1.77;;;0.93;;
17345;SDS011;8790;53.590;10.002;2022-08-06T07:42:08;1.83;;;0.97;;
17345;SDS011;8790;53.590;10.002;2022-08-06T07:44:49;1.27;;;0.80;;
17345;SDS011;8790;53.590;10.002;2022-08-06T07:47:25;2.40;;;1.10;;
17345;SDS011;8790;53.590;10.002;2022-08-06T07:50:00;2.47;;;1.43;;
17345;SDS011;8790;53.590;10.002;2022-08-06T07:52:32;1.17;;;0.83;;
17345;SDS011;8790;53.590;10.002;2022-08-06T07:55:07;1.97;;;1.00;;
17345;SDS011;8790;53.590;10.002;2022-08-06T07:57:45;1.47;;;0.93;;
17345;SDS011;8790;53.590;10.002;2022-08-06T08:00:16;1.17;;;0.97;;
17345;SDS011;8790;53.590;10.002;2022-08-06T08:02:48;1.50;;;0.90;;
17345;SDS011;8790;53.590;10.002;2022-08-06T08:05:40;2.07;;;1.17;;
17345;SDS011;8790;53.590;10.002;2022-08-06T08:08:31;2.23;;;1.00;;
17345;SDS011;8790;53.590;10.002;2022-08-06T08:11:05;3.53;;;1.00;;
17345;SDS011;8790;53.590;10.002;2022-08-06T08:13:38;2.87;;;1.20;;
17345;SDS011;8790;53.590;10.002;2022-08-06T08:16:12;2.50;;;1.08;;
17345;SDS011;8790;53.590;10.002;2022-08-06T08:18:45;2.53;;;0.80;;
17345;SDS011;8790;53.590;10.002;2022-08-06T08:21:17;2.78;;;0.80;;
17345;SDS011;8790;53.590;10.002;2022-08-06T08:23:50;2.63;;;0.73;;
17345;SDS011;8790;53.590;10.002;2022-08-06T08:26:24;1.77;;;0.90;;
17345;SDS011;8790;53.590;10.002;2022-08-06T08:28:56;1.67;;;0.60;;
17345;SDS011;8790;53.590;10.002;2022-08-06T08:31:27;1.20;;;0.70;;
17345;SDS011;8790;53.590;10.002;2022-08-06T08:33:59;1.38;;;0.70;;
17345;SDS011;8790;53.590;10.002;2022-08-06T08:36:31;0.75;;;0.70;;
17345;SDS011;8790;53.590;10.002;2022-08-06T08:39:03;1.23;;;0.70;;
17345;SDS011;8790;53.590;10.002;2022-08-06T08:41:39;0.90;;;0.60;;
17345;SDS011;8790;53.590;10.002;2022-08-06T08:44:17;3.45;;;0.70;;
17345;SDS011;8790;53.590;10.002;2022-08-06T08:46:54;2.08;;;0.75;;
17345;SDS011;8790;53.590;10.002;2022-08-06T08:49:37;1.75;;;0.60;;
17345;SDS011;8790;53.590;10.002;2022-08-06T08:52:12;2.35;;;0.85;;
17345;SDS011;8790;53.590;10.002;2022-08-06T08:54:46;1.95;;;0.90;;
17345;SDS011;8790;53.590;10.002;2022-08-06T08:57:22;1.45;;;0.68;;
17345;SDS011;8790;53.590;10.002;2022-08-06T08:59:56;1.55;;;0.60;;
17345;SDS011;8790;53.590;10.002;2022-08-06T09:02:28;2.05;;;0.82;;
17345;SDS011;8790;53.590;10.002;2022-08-06T09:05:00;3.45;;;0.95;;
17345;SDS011;8790;53.590;10.002;2022-08-06T09:07:32;1.38;;;0.80;;
17345;SDS011;8790;53.590;10.002;2022-08-06T09:10:06;1.50;;;0.90;;
17345;SDS011;8790;53.590;10.002;2022-08-06T09:12:40;2.05;;;0.70;;
17345;SDS011;8790;53.590;10.002;2022-08-06T09:15:12;1.55;;;0.70;;
17345;SDS011;8790;53.590;10.002;2022-08-06T09:17:46;1.67;;;0.80;;
17345;SDS011;8790;53.590;10.002;2022-08-06T09:20:19;0.70;;;0.60;;
17345;SDS011;8790;53.590;10.002;2022-08-06T09:22:51;2.63;;;0.70;;
17345;SDS011;8790;53.590;10.002;2022-08-06T09:25:34;4.03;;;3.63;;
17345;SDS011;8790;53.590;10.002;2022-08-06T09:28:11;4.68;;;2.55;;
17345;SDS011;8790;53.590;10.002;2022-08-06T09:31:01;1.45;;;0.60;;
17345;SDS011;8790;53.590;10.002;2022-08-06T09:33:36;2.40;;;0.80;;
17345;SDS011;8790;53.590;10.002;2022-08-06T09:36:10;1.50;;;0.90;;
17345;SDS011;8790;53.590;10.002;2022-08-06T09:38:47;2.42;;;0.77;;
17345;SDS011;8790;53.590;10.002;2022-08-06T09:41:20;1.20;;;1.00;;
17345;SDS011;8790;53.590;10.002;2022-08-06T09:43:56;3.80;;;1.10;;
17345;SDS011;8790;53.590;10.002;2022-08-06T09:46:35;1.92;;;1.00;;
17345;SDS011;8790;53.590;10.002;2022-08-06T09:49:09;1.27;;;0.70;;
17345;SDS011;8790;53.590;10.002;2022-08-06T09:51:43;1.60;;;0.95;;
17345;SDS011;8790;53.590;10.002;2022-08-06T09:54:15;5.00;;;0.98;;
17345;SDS011;8790;53.590;10.002;2022-08-06T09:56:47;1.25;;;0.73;;
17345;SDS011;8790;53.590;10.002;2022-08-06T09:59:29;2.13;;;1.50;;
17345;SDS011;8790;53.590;10.002;2022-08-06T10:02:13;3.47;;;0.90;;
17345;SDS011;8790;53.590;10.002;2022-08-06T10:04:47;3.00;;;1.40;;
17345;SDS011;8790;53.590;10.002;2022-08-06T10:07:28;2.38;;;0.80;;
17345;SDS011;8790;53.590;10.002;2022-08-06T10:10:00;3.08;;;0.90;;
17345;SDS011;8790;53.590;10.002;2022-08-06T10:12:32;2.42;;;0.80;;
17345;SDS011;8790;53.590;10.002;2022-08-06T10:15:05;24.42;;;19.52;;
17345;SDS011;8790;53.590;10.002;2022-08-06T10:17:38;4.57;;;2.80;;
17345;SDS011;8790;53.590;10.002;2022-08-06T10:20:16;3.00;;;1.10;;
17345;SDS011;8790;53.590;10.002;2022-08-06T10:22:51;2.03;;;0.90;;
17345;SDS011;8790;53.590;10.002;2022-08-06T10:25:26;1.50;;;0.90;;
17345;SDS011;8790;53.590;10.002;2022-08-06T10:28:00;2.08;;;0.88;;
17345;SDS011;8790;53.590;10.002;2022-08-06T10:30:33;2.28;;;0.88;;
17345;SDS011;8790;53.590;10.002;2022-08-06T10:33:06;1.77;;;0.80;;
17345;SDS011;8790;53.590;10.002;2022-08-06T10:35:41;2.45;;;0.95;;
17345;SDS011;8790;53.590;10.002;2022-08-06T10:38:15;2.97;;;0.90;;
17345;SDS011;8790;53.590;10.002;2022-08-06T10:40:51;2.67;;;1.10;;
17345;SDS011;8790;53.590;10.002;2022-08-06T10:43:24;2.55;;;1.20;;
17345;SDS011;8790;53.590;10.002;2022-08-06T10:45:58;3.55;;;1.30;;
17345;SDS011;8790;53.590;10.002;2022-08-06T10:48:32;2.90;;;1.40;;
17345;SDS011;8790;53.590;10.002;2022-08-06T10:51:06;2.60;;;1.50;;
17345;SDS011;8790;53.590;10.002;2022-08-06T10:53:40;1.70;;;1.60;;
17345;SDS011;8790;53.590;10.002;2022-08-06T10:56:14;3.58;;;1.85;;
17345;SDS011;8790;53.590;10.002;2022-08-06T10:58:47;5.53;;;1.88;;
17345;SDS011;8790;53.590;10.002;2022-08-06T11:01:23;3.42;;;2.00;;
17345;SDS011;8790;53.590;10.002;2022-08-06T11:04:06;2.58;;;1.92;;
17345;SDS011;8790;53.590;10.002;2022-08-06T11:06:57;3.17;;;2.00;;
17345;SDS011;8790;53.590;10.002;2022-08-06T11:09:53;2.97;;;2.45;;
17345;SDS011;8790;53.590;10.002;2022-08-06T11:12:40;2.75;;;2.28;;
17345;SDS011;8790;53.590;10.002;2022-08-06T11:15:18;4.85;;;2.85;;
17345;SDS011;8790;53.590;10.002;2022-08-06T11:17:53;3.20;;;2.60;;
17345;SDS011;8790;53.590;10.002;2022-08-06T11:20:39;4.38;;;2.17;;
17345;SDS011;8790;53.590;10.002;2022-08-06T11:23:22;4.38;;;3.28;;
17345;SDS011;8790;53.590;10.002;2022-08-06T11:25:56;5.53;;;3.00;;
17345;SDS011;8790;53.590;10.002;2022-08-06T11:31:32;3.33;;;2.42;;
17345;SDS011;8790;53.590;10.002;2022-08-06T11:34:08;2.65;;;2.45;;
17345;SDS011;8790;53.590;10.002;2022-08-06T11:36:51;3.03;;;2.53;;
17345;SDS011;8790;53.590;10.002;2022-08-06T11:39:25;3.95;;;2.30;;
17345;SDS011;8790;53.590;10.002;2022-08-06T11:41:58;6.18;;;2.45;;
17345;SDS011;8790;53.590;10.002;2022-08-06T11:44:32;4.60;;;2.85;;
17345;SDS011;8790;53.590;10.002;2022-08-06T11:47:09;3.22;;;2.42;;
17345;SDS011;8790;53.590;10.002;2022-08-06T11:49:48;4.40;;;2.70;;
17345;SDS011;8790;53.590;10.002;2022-08-06T11:55:13;4.53;;;2.80;;
17345;SDS011;8790;53.590;10.002;2022-08-06T11:57:46;3.17;;;2.78;;
17345;SDS011;8790;53.590;10.002;2022-08-06T12:00:19;3.92;;;3.13;;
17345;SDS011;8790;53.590;10.002;2022-08-06T12:02:53;3.83;;;2.45;;
17345;SDS011;8790;53.590;10.002;2022-08-06T12:05:37;3.70;;;2.65;;
17345;SDS011;8790;53.590;10.002;2022-08-06T12:14:01;7.03;;;2.90;;
17345;SDS011;8790;53.590;10.002;2022-08-06T12:16:36;6.13;;;4.65;;
17345;SDS011;8790;53.590;10.002;2022-08-06T12:19:13;4.25;;;3.50;;
17345;SDS011;8790;53.590;10.002;2022-08-06T12:21:50;3.95;;;3.33;;
17345;SDS011;8790;53.590;10.002;2022-08-06T12:24:23;4.15;;;3.30;;
17345;SDS011;8790;53.590;10.002;2022-08-06T12:26:56;4.50;;;2.90;;
17345;SDS011;8790;53.590;10.002;2022-08-06T12:29:29;4.10;;;3.13;;
17345;SDS011;8790;53.590;10.002;2022-08-06T12:32:01;5.82;;;4.47;;
17345;SDS011;8790;53.590;10.002;2022-08-06T12:34:49;4.97;;;3.78;;
17345;SDS011;8790;53.590;10.002;2022-08-06T12:37:37;5.25;;;3.20;;
17345;SDS011;8790;53.590;10.002;2022-08-06T12:40:11;5.22;;;3.80;;
17345;SDS011;8790;53.590;10.002;2022-08-06T12:43:09;4.20;;;3.80;;
17345;SDS011;8790;53.590;10.002;2022-08-06T12:45:42;5.07;;;3.92;;
17345;SDS011;8790;53.590;10.002;2022-08-06T12:48:14;4.22;;;3.42;;
17345;SDS011;8790;53.590;10.002;2022-08-06T12:50:45;3.22;;;2.90;;
17345;SDS011;8790;53.590;10.002;2022-08-06T12:53:18;3.90;;;3.30;;
17345;SDS011;8790;53.590;10.002;2022-08-06T12:55:51;3.88;;;3.45;;
17345;SDS011;8790;53.590;10.002;2022-08-06T12:58:24;4.80;;;3.50;;
17345;SDS011;8790;53.590;10.002;2022-08-06T13:01:01;3.35;;;3.05;;
17345;SDS011;8790;53.590;10.002;2022-08-06T13:03:35;5.95;;;4.35;;
17345;SDS011;8790;53.590;10.002;2022-08-06T13:06:10;4.65;;;3.83;;
17345;SDS011;8790;53.590;10.002;2022-08-06T13:08:46;3.72;;;3.42;;
17345;SDS011;8790;53.590;10.002;2022-08-06T13:11:18;4.15;;;3.42;;
17345;SDS011;8790;53.590;10.002;2022-08-06T13:13:51;4.80;;;3.90;;
17345;SDS011;8790;53.590;10.002;2022-08-06T13:16:22;5.20;;;4.30;;
17345;SDS011;8790;53.590;10.002;2022-08-06T13:19:04;6.25;;;4.30;;
17345;SDS011;8790;53.590;10.002;2022-08-06T13:21:39;5.47;;;4.10;;
17345;SDS011;8790;53.590;10.002;2022-08-06T13:24:13;4.82;;;4.38;;
17345;SDS011;8790;53.590;10.002;2022-08-06T13:26:56;6.10;;;4.28;;
17345;SDS011;8790;53.590;10.002;2022-08-06T13:29:28;4.28;;;3.80;;
17345;SDS011;8790;53.590;10.002;2022-08-06T13:32:01;4.07;;;3.47;;
17345;SDS011;8790;53.590;10.002;2022-08-06T13:34:45;4.47;;;4.07;;
17345;SDS011;8790;53.590;10.002;2022-08-06T13:40:18;6.15;;;4.65;;
17345;SDS011;8790;53.590;10.002;2022-08-06T13:42:51;5.32;;;4.75;;
17345;SDS011;8790;53.590;10.002;2022-08-06T13:45:24;5.43;;;4.90;;
17345;SDS011;8790;53.590;10.002;2022-08-06T13:48:00;5.05;;;4.55;;
17345;SDS011;8790;53.590;10.002;2022-08-06T13:50:33;7.00;;;5.32;;
17345;SDS011;8790;53.590;10.002;2022-08-06T13:53:05;5.57;;;4.97;;
17345;SDS011;8790;53.590;10.002;2022-08-06T13:55:41;5.18;;;4.65;;
17345;SDS011;8790;53.590;10.002;2022-08-06T13:58:14;5.07;;;4.40;;
17345;SDS011;8790;53.590;10.002;2022-08-06T14:00:46;5.20;;;4.30;;
17345;SDS011;8790;53.590;10.002;2022-08-06T14:03:17;5.35;;;4.75;;
17345;SDS011;8790;53.590;10.002;2022-08-06T14:05:49;5.38;;;4.70;;
17345;SDS011;8790;53.590;10.002;2022-08-06T14:08:21;5.47;;;4.70;;
17345;SDS011;8790;53.590;10.002;2022-08-06T14:10:54;5.35;;;4.68;;
17345;SDS011;8790;53.590;10.002;2022-08-06T14:13:26;5.35;;;4.57;;
17345;SDS011;8790;53.590;10.002;2022-08-06T14:15:59;6.60;;;4.85;;
17345;SDS011;8790;53.590;10.002;2022-08-06T14:18:31;4.57;;;4.10;;
17345;SDS011;8790;53.590;10.002;2022-08-06T14:21:03;5.78;;;4.53;;
17345;SDS011;8790;53.590;10.002;2022-08-06T14:23:35;6.00;;;4.85;;
17345;SDS011;8790;53.590;10.002;2022-08-06T14:26:08;5.32;;;4.50;;
17345;SDS011;8790;53.590;10.002;2022-08-06T14:28:39;5.63;;;5.03;;
17345;SDS011;8790;53.590;10.002;2022-08-06T14:31:11;6.43;;;5.00;;
17345;SDS011;8790;53.590;10.002;2022-08-06T14:33:43;5.45;;;4.90;;
17345;SDS011;8790;53.590;10.002;2022-08-06T14:36:15;6.85;;;4.80;;
17345;SDS011;8790;53.590;10.002;2022-08-06T14:38:47;6.93;;;5.47;;
17345;SDS011;8790;53.590;10.002;2022-08-06T14:41:20;5.75;;;5.20;;
17345;SDS011;8790;53.590;10.002;2022-08-06T14:44:09;7.00;;;4.95;;
17345;SDS011;8790;53.590;10.002;2022-08-06T14:46:59;5.78;;;5.18;;
17345;SDS011;8790;53.590;10.002;2022-08-06T14:49:30;6.78;;;5.65;;
17345;SDS011;8790;53.590;10.002;2022-08-06T14:52:02;6.35;;;5.55;;
17345;SDS011;8790;53.590;10.002;2022-08-06T14:54:34;7.10;;;5.32;;
17345;SDS011;8790;53.590;10.002;2022-08-06T14:57:09;6.45;;;5.75;;
17345;SDS011;8790;53.590;10.002;2022-08-06T14:59:41;5.75;;;5.25;;
17345;SDS011;8790;53.590;10.002;2022-08-06T15:02:14;7.97;;;5.72;;
17345;SDS011;8790;53.590;10.002;2022-08-06T15:04:45;6.50;;;5.75;;
17345;SDS011;8790;53.590;10.002;2022-08-06T15:07:17;7.28;;;5.60;;
17345;SDS011;8790;53.590;10.002;2022-08-06T15:09:49;7.00;;;6.25;;
17345;SDS011;8790;53.590;10.002;2022-08-06T15:12:22;6.72;;;5.97;;
17345;SDS011;8790;53.590;10.002;2022-08-06T15:14:54;6.10;;;5.50;;
17345;SDS011;8790;53.590;10.002;2022-08-06T15:17:25;6.28;;;5.57;;
17345;SDS011;8790;53.590;10.002;2022-08-06T15:19:59;6.30;;;5.65;;
17345;SDS011;8790;53.590;10.002;2022-08-06T15:22:30;6.10;;;5.47;;
17345;SDS011;8790;53.590;10.002;2022-08-06T15:25:02;6.07;;;5.47;;
17345;SDS011;8790;53.590;10.002;2022-08-06T15:27:36;9.18;;;5.35;;
17345;SDS011;8790;53.590;10.002;2022-08-06T15:30:08;7.15;;;6.18;;
17345;SDS011;8790;53.590;10.002;2022-08-06T15:32:40;5.78;;;4.88;;
17345;SDS011;8790;53.590;10.002;2022-08-06T15:35:12;5.65;;;5.15;;
17345;SDS011;8790;53.590;10.002;2022-08-06T15:37:44;7.57;;;5.18;;
17345;SDS011;8790;53.590;10.002;2022-08-06T15:40:15;5.93;;;5.32;;
17345;SDS011;8790;53.590;10.002;2022-08-06T15:42:49;5.53;;;5.03;;
17345;SDS011;8790;53.590;10.002;2022-08-06T15:45:21;4.78;;;4.38;;
17345;SDS011;8790;53.590;10.002;2022-08-06T15:47:52;5.28;;;4.78;;
17345;SDS011;8790;53.590;10.002;2022-08-06T15:50:24;5.22;;;4.72;;